sensor_id;sensor_type;location;lat;lon;timestamp;temperature;humidity
2855;DHT22;1435;49.472;10.940;2023-05-02T00:04:09;9.70;99.90
2855;DHT22;1435;49.472;10.940;2023-05-02T00:09:12;9.70;99.90
2855;DHT22;1435;49.472;10.940;2023-05-02T00:14:15;9.70;99.90
2855;DHT22;1435;49.472;10.940;2023-05-02T00:19:16;9.60;99.90
2855;DHT22;1435;49.472;10.940;2023-05-02T00:24:19;9.40;99.90
2855;DHT22;1435;49.472;10.940;2023-05-02T00:29:21;9.40;99.90
2855;DHT22;1435;49.472;10.940;2023-05-02T00:34:23;9.40;99.90
2855;DHT22;1435;49.472;10.940;2023-05-02T00:39:26;9.30;99.90
2855;DHT22;1435;49.472;10.940;2023-05-02T00:44:27;9.30;99.90
2855;DHT22;1435;49.472;10.940;2023-05-02T00:49:29;9.30;99.90
2855;DHT22;1435;49.472;10.940;2023-05-02T00:54:33;9.30;99.90
2855;DHT22;1435;49.472;10.940;2023-05-02T00:59:35;9.20;99.90
2855;DHT22;1435;49.472;10.940;2023-05-02T01:04:43;9.20;99.90
2855;DHT22;1435;49.472;10.940;2023-05-02T01:10:02;9.10;99.90
2855;DHT22;1435;49.472;10.940;2023-05-02T01:15:08;9.00;99.90
2855;DHT22;1435;49.472;10.940;2023-05-02T01:20:15;9.00;99.90
2855;DHT22;1435;49.472;10.940;2023-05-02T01:25:29;9.00;99.90
2855;DHT22;1435;49.472;10.940;2023-05-02T01:30:35;8.90;99.90
2855;DHT22;1435;49.472;10.940;2023-05-02T01:35:37;8.90;99.90
2855;DHT22;1435;49.472;10.940;2023-05-02T01:40:40;8.80;99.90
2855;DHT22;1435;49.472;10.940;2023-05-02T01:45:48;8.80;99.90
2855;DHT22;1435;49.472;10.940;2023-05-02T01:50:51;8.80;99.90
2855;DHT22;1435;49.472;10.940;2023-05-02T01:55:53;8.70;99.90
2855;DHT22;1435;49.472;10.940;2023-05-02T02:00:59;8.70;99.90
2855;DHT22;1435;49.472;10.940;2023-05-02T02:06:01;8.70;99.90
2855;DHT22;1435;49.472;10.940;2023-05-02T02:11:08;8.70;99.90
2855;DHT22;1435;49.472;10.940;2023-05-02T02:16:13;8.70;99.90
2855;DHT22;1435;49.472;10.940;2023-05-02T02:21:19;8.70;99.90
2855;DHT22;1435;49.472;10.940;2023-05-02T02:26:23;8.60;99.90
2855;DHT22;1435;49.472;10.940;2023-05-02T02:31:31;8.70;99.90
2855;DHT22;1435;49.472;10.940;2023-05-02T02:36:38;8.60;99.90
2855;DHT22;1435;49.472;10.940;2023-05-02T02:41:47;8.60;99.90
2855;DHT22;1435;49.472;10.940;2023-05-02T02:46:59;8.40;99.90
2855;DHT22;1435;49.472;10.940;2023-05-02T02:52:05;8.50;99.90
2855;DHT22;1435;49.472;10.940;2023-05-02T02:57:15;8.60;99.90
2855;DHT22;1435;49.472;10.940;2023-05-02T03:02:21;8.60;99.90
2855;DHT22;1435;49.472;10.940;2023-05-02T03:07:27;8.60;99.90
2855;DHT22;1435;49.472;10.940;2023-05-02T03:12:30;8.50;99.90
2855;DHT22;1435;49.472;10.940;2023-05-02T03:17:33;8.50;99.90
2855;DHT22;1435;49.472;10.940;2023-05-02T03:22:34;8.50;99.90
2855;DHT22;1435;49.472;10.940;2023-05-02T03:27:36;8.50;99.90
2855;DHT22;1435;49.472;10.940;2023-05-02T03:32:39;8.40;99.90
2855;DHT22;1435;49.472;10.940;2023-05-02T03:37:41;8.40;99.90
2855;DHT22;1435;49.472;10.940;2023-05-02T03:42:43;8.30;99.90
2855;DHT22;1435;49.472;10.940;2023-05-02T03:47:46;8.30;99.90
2855;DHT22;1435;49.472;10.940;2023-05-02T03:52:47;8.10;99.90
2855;DHT22;1435;49.472;10.940;2023-05-02T03:57:49;8.10;99.90
2855;DHT22;1435;49.472;10.940;2023-05-02T04:02:53;8.10;99.90
2855;DHT22;1435;49.472;10.940;2023-05-02T04:07:55;8.10;99.90
2855;DHT22;1435;49.472;10.940;2023-05-02T04:12:56;8.10;99.90
2855;DHT22;1435;49.472;10.940;2023-05-02T04:18:00;8.00;99.90
2855;DHT22;1435;49.472;10.940;2023-05-02T04:23:01;8.00;99.90
2855;DHT22;1435;49.472;10.940;2023-05-02T04:28:04;8.10;99.90
2855;DHT22;1435;49.472;10.940;2023-05-02T04:33:07;8.10;99.90
2855;DHT22;1435;49.472;10.940;2023-05-02T04:38:09;8.20;99.90
2855;DHT22;1435;49.472;10.940;2023-05-02T04:43:10;8.20;99.90
2855;DHT22;1435;49.472;10.940;2023-05-02T04:48:13;8.30;99.90
2855;DHT22;1435;49.472;10.940;2023-05-02T04:53:15;8.30;99.90
2855;DHT22;1435;49.472;10.940;2023-05-02T04:58:17;8.40;99.90
2855;DHT22;1435;49.472;10.940;2023-05-02T05:03:20;8.50;99.90
2855;DHT22;1435;49.472;10.940;2023-05-02T05:08:21;8.60;99.90
2855;DHT22;1435;49.472;10.940;2023-05-02T05:13:23;8.60;99.90
2855;DHT22;1435;49.472;10.940;2023-05-02T05:18:26;8.70;99.90
2855;DHT22;1435;49.472;10.940;2023-05-02T05:23:28;8.80;99.90
2855;DHT22;1435;49.472;10.940;2023-05-02T05:28:30;8.90;99.90
2855;DHT22;1435;49.472;10.940;2023-05-02T05:33:33;9.00;99.90
2855;DHT22;1435;49.472;10.940;2023-05-02T05:38:35;9.00;99.90
2855;DHT22;1435;49.472;10.940;2023-05-02T05:43:37;9.10;99.90
2855;DHT22;1435;49.472;10.940;2023-05-02T05:48:40;9.10;99.90
2855;DHT22;1435;49.472;10.940;2023-05-02T05:53:42;9.20;99.90
2855;DHT22;1435;49.472;10.940;2023-05-02T05:58:44;9.30;99.90
2855;DHT22;1435;49.472;10.940;2023-05-02T06:03:47;9.40;99.90
2855;DHT22;1435;49.472;10.940;2023-05-02T06:08:49;9.40;99.90
2855;DHT22;1435;49.472;10.940;2023-05-02T06:13:51;9.50;99.90
2855;DHT22;1435;49.472;10.940;2023-05-02T06:18:54;9.60;99.90
2855;DHT22;1435;49.472;10.940;2023-05-02T06:23:56;9.60;99.90
2855;DHT22;1435;49.472;10.940;2023-05-02T06:28:58;9.70;99.90
2855;DHT22;1435;49.472;10.940;2023-05-02T06:34:02;9.80;99.90
2855;DHT22;1435;49.472;10.940;2023-05-02T06:39:03;9.90;99.90
2855;DHT22;1435;49.472;10.940;2023-05-02T06:44:06;10.00;99.90
2855;DHT22;1435;49.472;10.940;2023-05-02T06:49:10;10.10;99.90
2855;DHT22;1435;49.472;10.940;2023-05-02T06:54:11;10.20;99.90
2855;DHT22;1435;49.472;10.940;2023-05-02T06:59:14;10.30;99.90
2855;DHT22;1435;49.472;10.940;2023-05-02T07:04:17;10.30;99.90
2855;DHT22;1435;49.472;10.940;2023-05-02T07:09:19;10.40;99.90
2855;DHT22;1435;49.472;10.940;2023-05-02T07:14:20;10.40;99.90
2855;DHT22;1435;49.472;10.940;2023-05-02T07:19:24;10.50;99.90
2855;DHT22;1435;49.472;10.940;2023-05-02T07:24:25;10.60;99.90
2855;DHT22;1435;49.472;10.940;2023-05-02T07:29:29;10.70;99.90
2855;DHT22;1435;49.472;10.940;2023-05-02T07:34:32;10.80;99.90
2855;DHT22;1435;49.472;10.940;2023-05-02T07:39:34;10.80;99.90
2855;DHT22;1435;49.472;10.940;2023-05-02T07:44:35;10.90;99.90
2855;DHT22;1435;49.472;10.940;2023-05-02T07:49:38;11.00;99.90
2855;DHT22;1435;49.472;10.940;2023-05-02T07:54:40;11.00;99.90
2855;DHT22;1435;49.472;10.940;2023-05-02T07:59:42;11.10;99.90
2855;DHT22;1435;49.472;10.940;2023-05-02T08:04:45;11.20;99.90
2855;DHT22;1435;49.472;10.940;2023-05-02T08:09:47;11.30;99.90
2855;DHT22;1435;49.472;10.940;2023-05-02T08:14:49;11.40;99.90
2855;DHT22;1435;49.472;10.940;2023-05-02T08:19:52;11.40;99.90
2855;DHT22;1435;49.472;10.940;2023-05-02T08:24:54;11.50;99.90
2855;DHT22;1435;49.472;10.940;2023-05-02T08:29:55;11.60;99.90
2855;DHT22;1435;49.472;10.940;2023-05-02T08:34:58;11.70;99.90
2855;DHT22;1435;49.472;10.940;2023-05-02T08:40:00;11.80;99.90
2855;DHT22;1435;49.472;10.940;2023-05-02T08:45:03;11.90;99.90
2855;DHT22;1435;49.472;10.940;2023-05-02T08:50:08;12.00;99.90
2855;DHT22;1435;49.472;10.940;2023-05-02T08:55:11;12.00;99.90
2855;DHT22;1435;49.472;10.940;2023-05-02T09:00:14;12.10;99.90
2855;DHT22;1435;49.472;10.940;2023-05-02T09:05:19;12.20;99.90
2855;DHT22;1435;49.472;10.940;2023-05-02T09:10:21;12.30;99.90
2855;DHT22;1435;49.472;10.940;2023-05-02T09:15:27;12.40;99.90
2855;DHT22;1435;49.472;10.940;2023-05-02T09:20:39;12.50;99.90
2855;DHT22;1435;49.472;10.940;2023-05-02T09:25:41;12.60;99.90
2855;DHT22;1435;49.472;10.940;2023-05-02T09:30:43;12.70;99.90
2855;DHT22;1435;49.472;10.940;2023-05-02T09:35:52;12.90;99.90
2855;DHT22;1435;49.472;10.940;2023-05-02T09:40:54;13.00;99.90
2855;DHT22;1435;49.472;10.940;2023-05-02T09:45:58;13.20;99.90
2855;DHT22;1435;49.472;10.940;2023-05-02T09:51:01;13.30;99.90
2855;DHT22;1435;49.472;10.940;2023-05-02T09:56:04;13.40;99.90
2855;DHT22;1435;49.472;10.940;2023-05-02T10:01:06;13.60;99.90
2855;DHT22;1435;49.472;10.940;2023-05-02T10:06:09;13.70;99.90
2855;DHT22;1435;49.472;10.940;2023-05-02T10:11:12;13.80;99.90
2855;DHT22;1435;49.472;10.940;2023-05-02T10:16:20;13.90;99.90
2855;DHT22;1435;49.472;10.940;2023-05-02T10:21:26;14.10;99.90
2855;DHT22;1435;49.472;10.940;2023-05-02T10:26:28;14.30;99.90
2855;DHT22;1435;49.472;10.940;2023-05-02T10:31:33;14.50;99.90
2855;DHT22;1435;49.472;10.940;2023-05-02T10:36:38;14.60;99.90
2855;DHT22;1435;49.472;10.940;2023-05-02T10:41:40;14.70;99.90
2855;DHT22;1435;49.472;10.940;2023-05-02T10:46:44;14.80;99.90
2855;DHT22;1435;49.472;10.940;2023-05-02T10:51:47;14.90;99.90
2855;DHT22;1435;49.472;10.940;2023-05-02T10:57:02;15.00;99.90
2855;DHT22;1435;49.472;10.940;2023-05-02T11:02:45;15.10;99.90
2855;DHT22;1435;49.472;10.940;2023-05-02T11:07:30;15.20;99.90
2855;DHT22;1435;49.472;10.940;2023-05-02T11:12:45;15.30;99.90
2855;DHT22;1435;49.472;10.940;2023-05-02T11:18:00;15.40;99.90
2855;DHT22;1435;49.472;10.940;2023-05-02T11:23:22;15.50;99.90
2855;DHT22;1435;49.472;10.940;2023-05-02T11:28:42;15.60;99.90
2855;DHT22;1435;49.472;10.940;2023-05-02T11:33:54;15.60;99.90
2855;DHT22;1435;49.472;10.940;2023-05-02T11:38:58;15.50;99.90
2855;DHT22;1435;49.472;10.940;2023-05-02T11:44:03;15.60;99.90
2855;DHT22;1435;49.472;10.940;2023-05-02T11:49:05;15.70;99.90
2855;DHT22;1435;49.472;10.940;2023-05-02T11:54:17;15.70;99.90
2855;DHT22;1435;49.472;10.940;2023-05-02T11:59:19;15.70;99.90
2855;DHT22;1435;49.472;10.940;2023-05-02T12:04:20;15.70;99.90
2855;DHT22;1435;49.472;10.940;2023-05-02T12:09:24;15.70;99.90
2855;DHT22;1435;49.472;10.940;2023-05-02T12:14:27;15.70;99.90
2855;DHT22;1435;49.472;10.940;2023-05-02T12:19:29;15.70;99.90
2855;DHT22;1435;49.472;10.940;2023-05-02T12:24:32;15.70;99.90
2855;DHT22;1435;49.472;10.940;2023-05-02T12:29:39;15.70;99.90
2855;DHT22;1435;49.472;10.940;2023-05-02T12:34:41;15.60;99.90
2855;DHT22;1435;49.472;10.940;2023-05-02T12:39:44;15.60;99.90
2855;DHT22;1435;49.472;10.940;2023-05-02T12:44:47;15.60;99.90
2855;DHT22;1435;49.472;10.940;2023-05-02T12:49:52;15.40;99.90
2855;DHT22;1435;49.472;10.940;2023-05-02T12:55:14;15.40;99.90
2855;DHT22;1435;49.472;10.940;2023-05-02T13:00:16;15.30;99.90
2855;DHT22;1435;49.472;10.940;2023-05-02T13:05:19;14.90;99.90
2855;DHT22;1435;49.472;10.940;2023-05-02T13:10:22;14.20;99.90
2855;DHT22;1435;49.472;10.940;2023-05-02T13:15:24;14.30;99.90
2855;DHT22;1435;49.472;10.940;2023-05-02T13:20:26;14.20;99.90
2855;DHT22;1435;49.472;10.940;2023-05-02T13:25:29;14.30;99.90
2855;DHT22;1435;49.472;10.940;2023-05-02T13:30:31;14.30;99.90
2855;DHT22;1435;49.472;10.940;2023-05-02T13:35:32;14.40;99.90
2855;DHT22;1435;49.472;10.940;2023-05-02T13:40:35;14.50;99.90
2855;DHT22;1435;49.472;10.940;2023-05-02T13:45:37;14.60;99.90
2855;DHT22;1435;49.472;10.940;2023-05-02T13:50:39;14.70;99.90
2855;DHT22;1435;49.472;10.940;2023-05-02T13:55:42;14.90;99.90
2855;DHT22;1435;49.472;10.940;2023-05-02T14:00:43;15.10;99.90
2855;DHT22;1435;49.472;10.940;2023-05-02T14:05:46;15.30;99.90
2855;DHT22;1435;49.472;10.940;2023-05-02T14:10:49;15.50;99.90
2855;DHT22;1435;49.472;10.940;2023-05-02T14:15:52;15.60;99.90
2855;DHT22;1435;49.472;10.940;2023-05-02T14:20:53;15.80;99.90
2855;DHT22;1435;49.472;10.940;2023-05-02T14:25:58;16.00;99.90
2855;DHT22;1435;49.472;10.940;2023-05-02T14:31:01;16.20;99.90
2855;DHT22;1435;49.472;10.940;2023-05-02T14:36:03;16.40;99.90
2855;DHT22;1435;49.472;10.940;2023-05-02T14:41:06;16.60;99.90
2855;DHT22;1435;49.472;10.940;2023-05-02T14:46:08;16.80;99.90
2855;DHT22;1435;49.472;10.940;2023-05-02T14:51:10;17.00;99.90
2855;DHT22;1435;49.472;10.940;2023-05-02T14:56:13;17.20;99.90
2855;DHT22;1435;49.472;10.940;2023-05-02T15:01:15;17.40;99.90
2855;DHT22;1435;49.472;10.940;2023-05-02T15:06:17;17.50;99.90
2855;DHT22;1435;49.472;10.940;2023-05-02T15:11:21;17.70;99.90
2855;DHT22;1435;49.472;10.940;2023-05-02T15:16:22;17.90;99.90
2855;DHT22;1435;49.472;10.940;2023-05-02T15:21:26;18.00;99.90
2855;DHT22;1435;49.472;10.940;2023-05-02T15:26:29;18.10;99.90
2855;DHT22;1435;49.472;10.940;2023-05-02T15:31:30;18.20;99.90
2855;DHT22;1435;49.472;10.940;2023-05-02T15:36:33;18.40;99.90
2855;DHT22;1435;49.472;10.940;2023-05-02T15:41:38;18.50;99.90
2855;DHT22;1435;49.472;10.940;2023-05-02T15:46:39;18.70;99.90
2855;DHT22;1435;49.472;10.940;2023-05-02T15:51:45;18.80;99.90
2855;DHT22;1435;49.472;10.940;2023-05-02T15:56:48;19.00;99.90
2855;DHT22;1435;49.472;10.940;2023-05-02T16:01:50;19.10;99.90
2855;DHT22;1435;49.472;10.940;2023-05-02T16:06:52;19.20;99.90
2855;DHT22;1435;49.472;10.940;2023-05-02T16:11:55;19.40;99.90
2855;DHT22;1435;49.472;10.940;2023-05-02T16:16:57;19.70;99.90
2855;DHT22;1435;49.472;10.940;2023-05-02T16:21:59;20.20;99.90
2855;DHT22;1435;49.472;10.940;2023-05-02T16:27:02;20.90;99.90
2855;DHT22;1435;49.472;10.940;2023-05-02T16:32:04;21.60;99.00
2855;DHT22;1435;49.472;10.940;2023-05-02T16:37:07;22.20;97.70
2855;DHT22;1435;49.472;10.940;2023-05-02T16:42:10;22.40;96.50
2855;DHT22;1435;49.472;10.940;2023-05-02T16:47:12;22.60;95.00
2855;DHT22;1435;49.472;10.940;2023-05-02T16:52:14;22.70;94.40
2855;DHT22;1435;49.472;10.940;2023-05-02T16:57:20;22.50;93.80
2855;DHT22;1435;49.472;10.940;2023-05-02T17:02:22;22.50;93.30
2855;DHT22;1435;49.472;10.940;2023-05-02T17:07:24;22.50;93.40
2855;DHT22;1435;49.472;10.940;2023-05-02T17:12:27;22.50;92.40
2855;DHT22;1435;49.472;10.940;2023-05-02T17:17:28;22.10;92.30
2855;DHT22;1435;49.472;10.940;2023-05-02T17:22:31;21.50;94.80
2855;DHT22;1435;49.472;10.940;2023-05-02T17:27:34;21.10;96.20
2855;DHT22;1435;49.472;10.940;2023-05-02T17:32:36;20.70;95.10
2855;DHT22;1435;49.472;10.940;2023-05-02T17:37:38;20.10;94.10
2855;DHT22;1435;49.472;10.940;2023-05-02T17:42:42;19.80;93.40
2855;DHT22;1435;49.472;10.940;2023-05-02T17:47:44;19.50;92.80
2855;DHT22;1435;49.472;10.940;2023-05-02T17:52:46;19.20;92.90
2855;DHT22;1435;49.472;10.940;2023-05-02T17:57:49;18.90;94.00
2855;DHT22;1435;49.472;10.940;2023-05-02T18:02:51;18.70;95.10
2855;DHT22;1435;49.472;10.940;2023-05-02T18:07:52;18.40;96.50
2855;DHT22;1435;49.472;10.940;2023-05-02T18:12:56;18.20;97.40
2855;DHT22;1435;49.472;10.940;2023-05-02T18:17:58;18.00;98.90
2855;DHT22;1435;49.472;10.940;2023-05-02T18:22:59;17.90;99.50
2855;DHT22;1435;49.472;10.940;2023-05-02T18:28:03;17.80;99.90
2855;DHT22;1435;49.472;10.940;2023-05-02T18:33:06;17.60;99.90
2855;DHT22;1435;49.472;10.940;2023-05-02T18:38:08;17.50;99.90
2855;DHT22;1435;49.472;10.940;2023-05-02T18:43:11;17.30;99.90
2855;DHT22;1435;49.472;10.940;2023-05-02T18:48:13;17.10;99.90
2855;DHT22;1435;49.472;10.940;2023-05-02T18:53:15;16.80;99.90
2855;DHT22;1435;49.472;10.940;2023-05-02T18:58:20;16.70;99.90
2855;DHT22;1435;49.472;10.940;2023-05-02T19:03:22;16.60;99.90
2855;DHT22;1435;49.472;10.940;2023-05-02T19:08:24;16.40;99.90
2855;DHT22;1435;49.472;10.940;2023-05-02T19:13:27;16.30;99.90
2855;DHT22;1435;49.472;10.940;2023-05-02T19:18:29;16.10;99.90
2855;DHT22;1435;49.472;10.940;2023-05-02T19:23:31;15.90;99.90
2855;DHT22;1435;49.472;10.940;2023-05-02T19:28:34;15.70;99.90
2855;DHT22;1435;49.472;10.940;2023-05-02T19:33:36;15.50;99.90
2855;DHT22;1435;49.472;10.940;2023-05-02T19:38:38;15.40;99.90
2855;DHT22;1435;49.472;10.940;2023-05-02T19:43:42;15.20;99.90
2855;DHT22;1435;49.472;10.940;2023-05-02T19:48:44;15.10;99.90
2855;DHT22;1435;49.472;10.940;2023-05-02T19:53:45;14.90;99.90
2855;DHT22;1435;49.472;10.940;2023-05-02T19:58:48;14.70;99.90
2855;DHT22;1435;49.472;10.940;2023-05-02T20:03:52;14.50;99.90
2855;DHT22;1435;49.472;10.940;2023-05-02T20:08:54;14.40;99.90
2855;DHT22;1435;49.472;10.940;2023-05-02T20:13:57;14.20;99.90
2855;DHT22;1435;49.472;10.940;2023-05-02T20:18:59;14.20;99.90
2855;DHT22;1435;49.472;10.940;2023-05-02T20:24:01;14.10;99.90
2855;DHT22;1435;49.472;10.940;2023-05-02T20:29:04;14.10;99.90
2855;DHT22;1435;49.472;10.940;2023-05-02T20:34:07;14.00;99.90
2855;DHT22;1435;49.472;10.940;2023-05-02T20:39:08;13.90;99.90
2855;DHT22;1435;49.472;10.940;2023-05-02T20:44:12;13.80;99.90
2855;DHT22;1435;49.472;10.940;2023-05-02T20:49:16;13.70;99.90
2855;DHT22;1435;49.472;10.940;2023-05-02T20:54:18;13.60;99.90
2855;DHT22;1435;49.472;10.940;2023-05-02T20:59:21;13.50;99.90
2855;DHT22;1435;49.472;10.940;2023-05-02T21:04:24;13.40;99.90
2855;DHT22;1435;49.472;10.940;2023-05-02T21:09:26;13.30;99.90
2855;DHT22;1435;49.472;10.940;2023-05-02T21:14:29;13.10;99.90
2855;DHT22;1435;49.472;10.940;2023-05-02T21:19:31;13.00;99.90
2855;DHT22;1435;49.472;10.940;2023-05-02T21:24:34;12.90;99.90
2855;DHT22;1435;49.472;10.940;2023-05-02T21:29:38;12.80;99.90
2855;DHT22;1435;49.472;10.940;2023-05-02T21:34:39;12.70;99.90
2855;DHT22;1435;49.472;10.940;2023-05-02T21:39:41;12.60;99.90
2855;DHT22;1435;49.472;10.940;2023-05-02T21:44:44;12.50;99.90
2855;DHT22;1435;49.472;10.940;2023-05-02T21:49:46;12.40;99.90
2855;DHT22;1435;49.472;10.940;2023-05-02T21:54:47;12.30;99.90
2855;DHT22;1435;49.472;10.940;2023-05-02T21:59:53;12.20;99.90
2855;DHT22;1435;49.472;10.940;2023-05-02T22:04:54;12.20;99.90
2855;DHT22;1435;49.472;10.940;2023-05-02T22:09:57;12.10;99.90
2855;DHT22;1435;49.472;10.940;2023-05-02T22:15:00;12.10;99.90
2855;DHT22;1435;49.472;10.940;2023-05-02T22:20:03;12.10;99.90
2855;DHT22;1435;49.472;10.940;2023-05-02T22:25:09;12.10;99.90
2855;DHT22;1435;49.472;10.940;2023-05-02T22:30:12;12.10;99.90
2855;DHT22;1435;49.472;10.940;2023-05-02T22:35:14;12.00;99.90
2855;DHT22;1435;49.472;10.940;2023-05-02T22:40:17;12.00;99.90
2855;DHT22;1435;49.472;10.940;2023-05-02T22:45:20;12.00;99.90
2855;DHT22;1435;49.472;10.940;2023-05-02T22:50:22;11.90;99.90
2855;DHT22;1435;49.472;10.940;2023-05-02T22:55:25;11.90;99.90
2855;DHT22;1435;49.472;10.940;2023-05-02T23:00:28;11.80;99.90
2855;DHT22;1435;49.472;10.940;2023-05-02T23:05:30;11.70;99.90
2855;DHT22;1435;49.472;10.940;2023-05-02T23:10:31;11.70;99.90
2855;DHT22;1435;49.472;10.940;2023-05-02T23:15:35;11.60;99.90
2855;DHT22;1435;49.472;10.940;2023-05-02T23:20:37;11.50;99.90
2855;DHT22;1435;49.472;10.940;2023-05-02T23:25:39;11.50;99.90
2855;DHT22;1435;49.472;10.940;2023-05-02T23:30:42;11.40;99.90
2855;DHT22;1435;49.472;10.940;2023-05-02T23:35:44;11.30;99.90
2855;DHT22;1435;49.472;10.940;2023-05-02T23:40:45;11.30;99.90
2855;DHT22;1435;49.472;10.940;2023-05-02T23:45:48;11.20;99.90
2855;DHT22;1435;49.472;10.940;2023-05-02T23:50:50;11.10;99.90
2855;DHT22;1435;49.472;10.940;2023-05-02T23:55:52;11.10;99.90
